createdAt,value
2022-12-24T00:01:38.881Z,76.16
2022-12-24T00:04:05.295Z,76.98
2022-12-24T00:06:31.674Z,78.02
2022-12-24T00:09:01.143Z,78.40
2022-12-24T00:11:27.590Z,77.99
2022-12-24T00:13:55.025Z,78.25
2022-12-24T00:16:21.472Z,78.00
2022-12-24T00:18:47.969Z,78.92
2022-12-24T00:21:17.893Z,78.53
2022-12-24T00:23:44.320Z,78.85
2022-12-24T00:26:10.783Z,77.97
2022-12-24T00:28:37.297Z,78.03
2022-12-24T00:31:03.872Z,77.91
2022-12-24T00:33:30.704Z,77.67
2022-12-24T00:36:03.049Z,77.47
2022-12-24T00:38:29.477Z,76.66
2022-12-24T00:40:59.243Z,77.38
2022-12-24T00:43:27.300Z,77.55
2022-12-24T00:45:53.745Z,77.97
2022-12-24T00:48:20.305Z,78.24
2022-12-24T00:50:46.765Z,78.14
2022-12-24T00:53:13.197Z,77.82
2022-12-24T00:55:39.529Z,78.10
2022-12-24T00:58:07.997Z,77.00
2022-12-24T01:00:34.432Z,77.37
2022-12-24T01:03:03.313Z,78.08
2022-12-24T01:05:30.184Z,78.45
2022-12-24T01:07:56.614Z,78.26
2022-12-24T01:10:23.037Z,78.01
2022-12-24T01:12:49.439Z,78.27
2022-12-24T01:15:17.928Z,78.09
2022-12-24T01:17:44.383Z,78.20
2022-12-24T01:20:10.797Z,79.03
2022-12-24T01:22:39.921Z,78.65
2022-12-24T01:27:46.771Z,78.27
2022-12-24T01:30:13.232Z,77.91
2022-12-24T01:32:39.615Z,78.53
2022-12-24T01:35:06.029Z,78.08
2022-12-24T01:37:32.524Z,79.42
2022-12-24T01:39:58.955Z,78.97
2022-12-24T01:42:26.475Z,78.29
2022-12-24T01:44:53.059Z,78.42
2022-12-24T01:47:19.513Z,78.65
2022-12-24T01:49:45.939Z,78.56
2022-12-24T01:52:12.318Z,78.56
2022-12-24T01:54:38.674Z,78.17
2022-12-24T01:57:05.101Z,78.23
2022-12-24T01:59:31.691Z,78.54
2022-12-24T02:01:58.164Z,79.04
2022-12-24T02:04:24.634Z,78.96
2022-12-24T02:06:50.997Z,78.93
2022-12-24T02:09:17.375Z,78.25
2022-12-24T02:11:46.184Z,78.55
2022-12-24T02:14:19.756Z,78.26
2022-12-24T02:16:46.235Z,77.97
2022-12-24T02:19:12.716Z,78.40
2022-12-24T02:21:39.202Z,78.89
2022-12-24T02:24:07.937Z,78.83
2022-12-24T02:26:34.321Z,78.95
2022-12-24T02:29:00.839Z,79.31
2022-12-24T02:31:27.276Z,78.14
2022-12-24T02:33:54.121Z,79.09
2022-12-24T02:36:20.559Z,79.30
2022-12-24T02:38:46.975Z,79.12
2022-12-24T02:41:13.423Z,78.72
2022-12-24T02:43:40.136Z,77.76
2022-12-24T02:46:06.914Z,78.49
2022-12-24T02:48:33.672Z,79.32
2022-12-24T02:51:00.380Z,79.26
2022-12-24T02:53:26.816Z,79.35
2022-12-24T02:55:53.244Z,78.87
2022-12-24T02:58:19.707Z,78.94
2022-12-24T03:00:46.147Z,78.73
2022-12-24T03:03:12.543Z,79.12
2022-12-24T03:05:38.906Z,78.55
2022-12-24T03:08:05.588Z,78.18
2022-12-24T03:10:32.000Z,78.92
2022-12-24T03:12:58.426Z,78.54
2022-12-24T03:15:28.750Z,78.63
2022-12-24T03:17:56.879Z,76.74
2022-12-24T03:20:23.268Z,78.61
2022-12-24T03:22:49.833Z,78.65
2022-12-24T03:25:16.176Z,78.12
2022-12-24T03:27:42.598Z,78.61
2022-12-24T03:30:11.755Z,78.80
2022-12-24T03:32:38.097Z,78.52
2022-12-24T03:35:12.435Z,77.40
2022-12-24T03:37:41.034Z,77.40
2022-12-24T03:40:07.464Z,77.96
2022-12-24T03:42:34.037Z,78.46
2022-12-24T03:45:00.427Z,78.06
2022-12-24T03:50:07.122Z,77.40
2022-12-24T03:52:33.567Z,77.54
2022-12-24T03:55:00.030Z,77.08
2022-12-24T03:57:26.524Z,76.38
2022-12-24T03:59:52.950Z,77.25
2022-12-24T04:02:19.521Z,77.07
2022-12-24T04:04:45.943Z,77.51
2022-12-24T04:07:12.363Z,76.87
2022-12-24T04:09:38.889Z,76.84
2022-12-24T04:14:45.564Z,74.72
2022-12-24T04:17:11.925Z,75.91
2022-12-24T04:19:38.354Z,75.82
2022-12-24T04:22:04.741Z,76.56
2022-12-24T04:24:37.178Z,75.79
2022-12-24T04:27:04.411Z,76.40
2022-12-24T04:29:31.716Z,76.65
2022-12-24T04:31:58.324Z,76.67
2022-12-24T04:34:30.612Z,75.13
2022-12-24T04:36:56.996Z,74.71
2022-12-24T04:39:23.493Z,75.34
2022-12-24T04:41:49.937Z,75.70
2022-12-24T04:44:16.678Z,74.77
2022-12-24T04:46:43.085Z,74.59
2022-12-24T04:49:09.456Z,75.65
2022-12-24T04:51:38.722Z,75.78
2022-12-24T04:54:05.275Z,75.61
2022-12-24T04:56:31.643Z,75.45
2022-12-24T04:59:00.242Z,76.24
2022-12-24T05:01:26.915Z,77.02
2022-12-24T05:03:53.402Z,76.71
2022-12-24T05:06:19.808Z,76.17
2022-12-24T05:08:46.218Z,76.35
2022-12-24T05:11:13.406Z,76.57
2022-12-24T05:13:46.208Z,76.72
2022-12-24T05:16:13.816Z,76.97
2022-12-24T05:18:40.268Z,76.76
2022-12-24T05:21:06.654Z,76.09
2022-12-24T05:23:33.081Z,75.33
2022-12-24T05:28:39.827Z,75.41
2022-12-24T05:31:06.278Z,75.92
2022-12-24T05:33:38.714Z,76.89
2022-12-24T05:36:05.175Z,76.84
2022-12-24T05:38:31.598Z,76.07
2022-12-24T05:40:58.031Z,76.05
2022-12-24T05:43:24.496Z,75.91
2022-12-24T05:45:50.957Z,76.26
2022-12-24T05:48:17.498Z,75.80
2022-12-24T05:50:43.925Z,75.91
2022-12-24T05:53:10.431Z,75.87
2022-12-24T05:55:36.891Z,75.64
2022-12-24T05:58:03.348Z,75.75
2022-12-24T06:00:29.761Z,75.84
2022-12-24T06:02:56.307Z,75.90
2022-12-24T06:05:22.806Z,75.88
2022-12-24T06:07:49.407Z,75.94
2022-12-24T06:10:15.871Z,75.84
2022-12-24T06:12:44.970Z,75.74
2022-12-24T06:15:23.491Z,76.32
2022-12-24T06:17:50.492Z,75.40
2022-12-24T06:20:21.194Z,75.80
2022-12-24T06:22:47.606Z,75.24
2022-12-24T06:25:13.958Z,75.60
2022-12-24T06:27:40.498Z,76.61
2022-12-24T06:30:06.937Z,75.92
2022-12-24T06:32:33.425Z,75.82
2022-12-24T06:34:59.873Z,75.26
2022-12-24T06:37:26.363Z,75.21
2022-12-24T06:39:52.716Z,75.62
2022-12-24T06:42:19.088Z,75.39
2022-12-24T06:44:45.762Z,75.71
2022-12-24T06:47:14.013Z,76.46
2022-12-24T06:49:40.543Z,76.67
2022-12-24T06:52:10.943Z,76.14
2022-12-24T06:54:37.343Z,76.88
2022-12-24T06:57:03.827Z,75.97
2022-12-24T06:59:30.215Z,75.98
2022-12-24T07:01:57.005Z,75.26
2022-12-24T07:04:23.534Z,74.95
2022-12-24T07:06:50.020Z,74.95
2022-12-24T07:09:19.001Z,74.94
2022-12-24T07:11:45.414Z,74.43
2022-12-24T07:14:11.860Z,74.50
2022-12-24T07:16:38.433Z,75.05
2022-12-24T07:19:04.877Z,75.52
2022-12-24T07:21:31.323Z,75.91
2022-12-24T07:23:57.770Z,75.34
2022-12-24T07:29:18.405Z,75.73
2022-12-24T07:31:44.841Z,74.44
2022-12-24T07:34:11.336Z,74.09
2022-12-24T07:36:37.718Z,73.81
2022-12-24T07:39:04.201Z,73.54
2022-12-24T07:41:32.045Z,73.37
2022-12-24T07:44:00.842Z,74.13
2022-12-24T07:46:27.370Z,73.83
2022-12-24T07:48:53.846Z,74.66
2022-12-24T07:51:20.276Z,75.07
2022-12-24T07:53:46.699Z,75.05
2022-12-24T07:56:13.288Z,74.60
2022-12-24T07:58:39.731Z,75.04
2022-12-24T08:01:06.220Z,74.85
2022-12-24T08:06:13.021Z,75.10
2022-12-24T08:08:43.828Z,75.64
2022-12-24T08:11:10.283Z,75.65
2022-12-24T08:13:38.293Z,75.39
2022-12-24T08:16:08.838Z,75.96
2022-12-24T08:18:43.650Z,75.46
2022-12-24T08:21:17.649Z,75.34
2022-12-24T08:23:44.110Z,75.14
2022-12-24T08:26:13.353Z,75.40
2022-12-24T08:28:42.674Z,76.13
2022-12-24T08:31:09.430Z,75.63
2022-12-24T08:33:35.930Z,74.76
2022-12-24T08:36:02.401Z,75.55
2022-12-24T08:38:28.808Z,76.37
2022-12-24T08:40:55.237Z,76.32
2022-12-24T08:46:02.240Z,76.25
2022-12-24T08:51:09.301Z,75.82
2022-12-24T08:53:35.783Z,75.66
2022-12-24T08:56:02.342Z,75.74
2022-12-24T08:58:28.827Z,75.44
2022-12-24T09:00:55.321Z,75.63
2022-12-24T09:03:27.446Z,74.83
2022-12-24T09:05:54.626Z,74.97
2022-12-24T09:08:21.028Z,75.18
2022-12-24T09:10:47.395Z,76.16
2022-12-24T09:13:13.829Z,75.72
2022-12-24T09:15:40.380Z,76.02
2022-12-24T09:18:06.781Z,76.23
2022-12-24T09:20:33.386Z,75.62
2022-12-24T09:23:00.190Z,75.83
2022-12-24T09:25:26.648Z,74.76
2022-12-24T09:27:53.385Z,75.14
2022-12-24T09:30:21.548Z,74.73
2022-12-24T09:37:57.933Z,75.24
2022-12-24T09:40:24.331Z,74.92
2022-12-24T09:42:50.801Z,75.25
2022-12-24T09:45:18.508Z,74.99
2022-12-24T09:47:44.888Z,75.52
2022-12-24T09:50:11.282Z,75.38
2022-12-24T09:52:37.647Z,75.26
2022-12-24T09:55:04.044Z,74.93
2022-12-24T09:57:30.454Z,74.49
2022-12-24T09:59:56.930Z,74.75
2022-12-24T10:02:26.046Z,75.56
2022-12-24T10:04:53.612Z,75.08
2022-12-24T10:07:20.133Z,74.50
2022-12-24T10:09:46.662Z,74.56
2022-12-24T10:12:13.262Z,74.51
2022-12-24T10:14:39.762Z,74.91
2022-12-24T10:17:06.237Z,74.31
2022-12-24T10:19:32.699Z,75.00
2022-12-24T10:21:59.204Z,75.32
2022-12-24T10:24:25.745Z,75.78
2022-12-24T10:26:52.127Z,75.54
2022-12-24T10:29:18.557Z,74.51
2022-12-24T10:31:45.009Z,75.09
2022-12-24T10:34:13.478Z,75.11
2022-12-24T10:36:46.475Z,74.75
2022-12-24T10:39:12.905Z,74.63
2022-12-24T10:41:39.387Z,74.53
2022-12-24T10:44:05.817Z,74.73
2022-12-24T10:46:36.650Z,74.52
2022-12-24T10:49:03.128Z,73.54
2022-12-24T10:51:29.569Z,73.92
2022-12-24T10:53:55.978Z,73.82
2022-12-24T10:56:22.608Z,73.29
2022-12-24T10:58:48.983Z,73.81
2022-12-24T11:01:18.002Z,73.86
2022-12-24T11:03:44.539Z,73.98
2022-12-24T11:06:11.003Z,74.18
2022-12-24T11:08:37.402Z,74.00
2022-12-24T11:11:03.770Z,74.07
2022-12-24T11:13:39.075Z,74.14
2022-12-24T11:16:06.051Z,73.61
2022-12-24T11:18:32.569Z,73.76
2022-12-24T11:20:59.179Z,73.12
2022-12-24T11:23:25.649Z,73.05
2022-12-24T11:25:52.005Z,72.44
2022-12-24T11:28:18.613Z,73.55
2022-12-24T11:30:45.054Z,73.90
2022-12-24T11:33:11.495Z,73.87
2022-12-24T11:35:37.922Z,73.49
2022-12-24T11:38:04.377Z,72.80
2022-12-24T11:40:30.817Z,72.95
2022-12-24T11:42:57.220Z,73.37
2022-12-24T11:45:23.618Z,73.25
2022-12-24T11:47:51.096Z,73.32
2022-12-24T11:50:18.771Z,73.30
2022-12-24T11:52:45.414Z,73.82
2022-12-24T11:55:16.295Z,72.90
2022-12-24T11:57:43.189Z,72.22
2022-12-24T12:00:09.557Z,71.97
2022-12-24T12:02:40.335Z,71.44
2022-12-24T12:05:06.747Z,71.51
2022-12-24T12:07:33.157Z,71.73
2022-12-24T12:09:59.567Z,71.51
2022-12-24T12:12:28.871Z,71.68
2022-12-24T12:14:55.242Z,71.94
2022-12-24T12:17:24.205Z,72.00
2022-12-24T12:19:50.597Z,71.13
2022-12-24T12:22:16.985Z,71.82
2022-12-24T12:24:43.434Z,71.53
2022-12-24T12:27:09.864Z,70.58
2022-12-24T12:29:36.549Z,70.32
2022-12-24T12:32:02.989Z,70.34
2022-12-24T12:34:29.436Z,71.16
2022-12-24T12:36:55.865Z,71.50
2022-12-24T12:39:22.328Z,71.49
2022-12-24T12:41:48.761Z,71.60
2022-12-24T12:44:16.004Z,71.19
2022-12-24T12:46:42.444Z,69.93
2022-12-24T12:49:12.526Z,70.11
2022-12-24T12:51:38.990Z,68.76
2022-12-24T12:54:05.397Z,69.60
2022-12-24T12:56:31.781Z,70.24
2022-12-24T12:58:59.203Z,70.43
2022-12-24T13:01:32.321Z,70.55
2022-12-24T13:03:59.504Z,70.81
2022-12-24T13:06:25.983Z,70.82
2022-12-24T13:08:52.434Z,69.83
2022-12-24T13:11:18.876Z,69.80
2022-12-24T13:13:46.616Z,70.02
2022-12-24T13:16:13.227Z,69.82
2022-12-24T13:18:41.045Z,69.06
2022-12-24T13:21:08.578Z,68.76
2022-12-24T13:23:37.051Z,69.10
2022-12-24T13:27:38.012Z,70.16
2022-12-24T13:28:50.662Z,70.65
2022-12-24T13:31:18.505Z,69.70
2022-12-24T13:33:45.008Z,69.80
2022-12-24T13:36:11.535Z,70.18
2022-12-24T13:38:38.084Z,69.25
2022-12-24T13:41:05.766Z,69.25
2022-12-24T13:43:32.265Z,69.41
2022-12-24T13:45:58.756Z,69.13
2022-12-24T13:50:59.856Z,69.75
2022-12-24T13:53:26.327Z,69.93
2022-12-24T13:55:55.931Z,69.76
2022-12-24T13:58:24.643Z,69.78
2022-12-24T14:01:24.343Z,69.88
2022-12-24T14:03:48.491Z,70.52
2022-12-24T14:06:15.125Z,69.95
2022-12-24T14:08:43.734Z,70.14
2022-12-24T14:11:10.302Z,69.92
2022-12-24T14:13:36.934Z,69.03
2022-12-24T14:16:05.625Z,68.79
2022-12-24T14:18:35.888Z,69.42
2022-12-24T14:21:02.357Z,69.77
2022-12-24T14:23:28.781Z,70.19
2022-12-24T14:25:55.263Z,69.80
2022-12-24T14:28:21.766Z,69.93
2022-12-24T14:30:50.183Z,70.03
2022-12-24T14:33:16.638Z,70.45
2022-12-24T14:35:46.654Z,70.28
2022-12-24T14:38:15.716Z,70.38
2022-12-24T14:40:42.198Z,69.79
2022-12-24T14:43:08.605Z,70.25
2022-12-24T14:45:35.115Z,71.22
2022-12-24T14:48:07.853Z,70.92
2022-12-24T14:50:40.375Z,71.39
2022-12-24T14:53:11.749Z,71.70
2022-12-24T14:55:39.871Z,71.21
2022-12-24T14:58:06.294Z,71.00
2022-12-24T15:00:39.120Z,71.03
2022-12-24T15:03:05.981Z,71.25
2022-12-24T15:05:32.380Z,71.32
2022-12-24T15:07:58.826Z,71.68
2022-12-24T15:10:25.278Z,71.88
2022-12-24T15:12:54.798Z,71.75
2022-12-24T15:15:21.235Z,71.30
2022-12-24T15:17:47.672Z,71.52
2022-12-24T15:20:14.056Z,72.44
2022-12-24T15:22:40.518Z,72.37
2022-12-24T15:25:06.966Z,71.96
2022-12-24T15:27:33.493Z,72.18
2022-12-24T15:29:59.983Z,72.38
2022-12-24T15:32:26.475Z,72.06
2022-12-24T15:34:52.913Z,72.57
2022-12-24T15:37:20.668Z,72.89
2022-12-24T15:39:50.528Z,73.51
2022-12-24T15:42:17.063Z,73.18
2022-12-24T15:44:47.874Z,72.70
2022-12-24T15:47:14.328Z,72.46
2022-12-24T15:49:43.838Z,72.91
2022-12-24T15:52:10.328Z,72.51
2022-12-24T15:54:37.008Z,72.61
2022-12-24T15:57:03.591Z,73.47
2022-12-24T15:59:30.050Z,73.22
2022-12-24T16:01:56.694Z,73.54
2022-12-24T16:04:24.469Z,73.59
2022-12-24T16:06:50.946Z,73.55
2022-12-24T16:09:17.437Z,73.49
2022-12-24T16:11:43.925Z,73.55
2022-12-24T16:14:10.428Z,73.29
2022-12-24T16:16:36.936Z,72.97
2022-12-24T16:19:03.519Z,72.45
2022-12-24T16:24:21.128Z,72.71
2022-12-24T16:26:47.591Z,73.23
2022-12-24T16:29:15.402Z,73.00
2022-12-24T16:31:42.012Z,72.81
2022-12-24T16:34:08.615Z,73.24
2022-12-24T16:36:35.100Z,73.11
2022-12-24T16:39:01.551Z,73.48
2022-12-24T16:41:27.971Z,73.34
2022-12-24T16:43:54.475Z,73.70
2022-12-24T16:46:20.962Z,73.33
2022-12-24T16:48:47.497Z,73.32
2022-12-24T16:51:13.881Z,74.05
2022-12-24T16:53:40.383Z,73.46
2022-12-24T16:56:06.862Z,73.84
2022-12-24T16:58:46.822Z,73.70
2022-12-24T17:01:13.402Z,73.68
2022-12-24T17:03:40.112Z,74.38
2022-12-24T17:06:06.636Z,74.27
2022-12-24T17:08:33.097Z,74.00
2022-12-24T17:10:59.679Z,74.35
2022-12-24T17:13:26.062Z,74.25
2022-12-24T17:15:52.578Z,73.99
2022-12-24T17:18:21.048Z,74.50
2022-12-24T17:20:48.829Z,74.46
2022-12-24T17:23:16.334Z,74.19
2022-12-24T17:25:52.065Z,74.56
2022-12-24T17:28:18.523Z,74.41
2022-12-24T17:30:45.064Z,74.52
2022-12-24T17:33:14.844Z,74.71
2022-12-24T17:35:41.689Z,74.30
2022-12-24T17:38:08.101Z,73.87
2022-12-24T17:40:34.499Z,74.05
2022-12-24T17:43:00.974Z,74.60
2022-12-24T17:45:27.369Z,74.61
2022-12-24T17:47:53.869Z,74.01
2022-12-24T17:50:20.872Z,74.18
2022-12-24T17:52:53.793Z,74.36
2022-12-24T17:55:20.166Z,73.82
2022-12-24T17:57:46.618Z,73.83
2022-12-24T18:00:13.118Z,73.53
2022-12-24T18:02:39.628Z,73.37
2022-12-24T18:05:06.161Z,74.15
2022-12-24T18:07:32.713Z,74.00
2022-12-24T18:09:59.116Z,74.34
2022-12-24T18:12:25.616Z,72.98
2022-12-24T18:14:52.231Z,72.47
2022-12-24T18:17:18.735Z,73.02
2022-12-24T18:19:45.171Z,73.04
2022-12-24T18:22:11.611Z,73.12
2022-12-24T18:24:38.098Z,73.07
2022-12-24T18:27:04.517Z,73.22
2022-12-24T18:29:33.883Z,72.81
2022-12-24T18:32:00.404Z,72.92
2022-12-24T18:34:26.854Z,73.31
2022-12-24T18:36:55.677Z,72.81
2022-12-24T18:39:22.472Z,73.10
2022-12-24T18:41:48.834Z,73.23
2022-12-24T18:44:18.168Z,73.00
2022-12-24T18:46:49.161Z,72.85
2022-12-24T18:49:15.522Z,73.20
2022-12-24T18:51:42.011Z,73.33
2022-12-24T18:54:08.465Z,73.37
2022-12-24T18:56:34.900Z,73.72
2022-12-24T18:59:01.314Z,74.42
2022-12-24T19:01:27.841Z,73.92
2022-12-24T19:03:56.522Z,74.15
2022-12-24T19:06:25.139Z,74.26
2022-12-24T19:09:00.696Z,74.48
2022-12-24T19:11:28.104Z,74.03
2022-12-24T19:13:57.301Z,74.58
2022-12-24T19:16:23.889Z,74.88
2022-12-24T19:18:53.023Z,74.19
2022-12-24T19:21:19.404Z,74.21
2022-12-24T19:23:45.915Z,74.35
2022-12-24T19:26:12.454Z,74.56
2022-12-24T19:28:38.914Z,73.68
2022-12-24T19:31:05.387Z,73.74
2022-12-24T19:33:31.861Z,74.00
2022-12-24T19:35:58.359Z,73.36
2022-12-24T19:38:24.770Z,73.03
2022-12-24T19:40:51.221Z,73.12
2022-12-24T19:43:17.653Z,73.04
2022-12-24T19:45:44.081Z,73.78
2022-12-24T19:48:11.540Z,74.73
2022-12-24T19:50:37.936Z,75.16
2022-12-24T19:53:05.612Z,74.69
2022-12-24T19:55:32.017Z,75.25
2022-12-24T19:57:58.459Z,75.09
2022-12-24T20:00:24.823Z,74.84
2022-12-24T20:02:51.357Z,74.68
2022-12-24T20:05:17.900Z,74.72
2022-12-24T20:07:44.280Z,74.07
2022-12-24T20:10:10.731Z,74.35
2022-12-24T20:12:37.130Z,74.61
2022-12-24T20:15:03.526Z,74.98
2022-12-24T20:17:29.915Z,74.83
2022-12-24T20:19:56.420Z,74.59
2022-12-24T20:22:25.563Z,74.25
2022-12-24T20:24:51.970Z,75.04
2022-12-24T20:27:20.274Z,74.66
2022-12-24T20:29:50.334Z,74.75
2022-12-24T20:32:16.889Z,74.66
2022-12-24T20:34:43.326Z,73.76
2022-12-24T20:37:09.671Z,73.91
2022-12-24T20:39:36.063Z,75.49
2022-12-24T20:42:02.458Z,73.98
2022-12-24T20:44:28.851Z,73.57
2022-12-24T20:46:55.473Z,74.03
2022-12-24T20:49:24.595Z,74.52
2022-12-24T20:51:51.063Z,74.60
2022-12-24T20:54:17.546Z,74.38
2022-12-24T20:56:43.883Z,74.65
2022-12-24T20:59:10.303Z,74.05
2022-12-24T21:01:36.764Z,74.78
2022-12-24T21:04:03.163Z,74.49
2022-12-24T21:06:29.555Z,74.28
2022-12-24T21:08:56.031Z,74.48
2022-12-24T21:11:22.418Z,74.90
2022-12-24T21:13:48.994Z,74.99
2022-12-24T21:16:15.501Z,74.62
2022-12-24T21:18:41.960Z,74.77
2022-12-24T21:21:08.435Z,75.01
2022-12-24T21:23:39.128Z,75.53
2022-12-24T21:26:05.529Z,75.40
2022-12-24T21:28:39.564Z,74.78
2022-12-24T21:31:13.512Z,75.46
2022-12-24T21:33:39.971Z,74.47
2022-12-24T21:36:06.391Z,73.91
2022-12-24T21:38:32.859Z,74.33
2022-12-24T21:41:02.292Z,73.46
2022-12-24T21:43:28.723Z,73.95
2022-12-24T21:45:55.263Z,74.56
2022-12-24T21:48:21.759Z,73.89
2022-12-24T21:50:51.217Z,74.42
2022-12-24T21:53:24.289Z,74.03
2022-12-24T21:55:50.740Z,74.15
2022-12-24T21:58:20.509Z,74.25
2022-12-24T22:00:46.889Z,75.18
2022-12-24T22:03:13.360Z,75.04
2022-12-24T22:05:39.940Z,74.45
2022-12-24T22:08:06.320Z,74.55
2022-12-24T22:10:35.555Z,74.80
2022-12-24T22:13:01.999Z,73.96
2022-12-24T22:15:28.416Z,73.15
2022-12-24T22:17:54.814Z,73.83
2022-12-24T22:20:21.237Z,74.02
2022-12-24T22:22:47.671Z,74.02
2022-12-24T22:25:14.095Z,73.88
2022-12-24T22:27:40.477Z,73.29
2022-12-24T22:30:06.999Z,73.28
2022-12-24T22:32:33.364Z,74.02
2022-12-24T22:34:59.865Z,72.62
2022-12-24T22:37:26.247Z,72.91
2022-12-24T22:39:52.920Z,72.83
2022-12-24T22:42:22.116Z,72.81
2022-12-24T22:44:48.501Z,73.56
2022-12-24T22:47:14.860Z,74.08
2022-12-24T22:49:49.994Z,74.04
2022-12-24T22:52:16.552Z,73.32
2022-12-24T22:54:42.982Z,73.36
2022-12-24T22:57:09.524Z,73.45
2022-12-24T22:59:35.921Z,73.92
2022-12-24T23:02:02.700Z,74.40
2022-12-24T23:07:09.458Z,74.31
2022-12-24T23:09:35.977Z,74.80
2022-12-24T23:12:02.387Z,74.58
2022-12-24T23:14:28.871Z,74.85
2022-12-24T23:16:55.271Z,74.88
2022-12-24T23:19:23.719Z,74.57
2022-12-24T23:21:50.083Z,74.95
2022-12-24T23:24:16.437Z,74.46
2022-12-24T23:26:45.050Z,74.93
2022-12-24T23:29:11.518Z,74.11
2022-12-24T23:31:38.024Z,74.48
2022-12-24T23:34:04.445Z,74.58
2022-12-24T23:36:30.916Z,74.23
2022-12-24T23:39:03.629Z,74.33
2022-12-24T23:41:30.009Z,73.67
2022-12-24T23:43:56.562Z,74.44
2022-12-24T23:46:23.016Z,74.26
2022-12-24T23:48:49.677Z,74.13
2022-12-24T23:51:16.026Z,73.50
2022-12-24T23:53:42.438Z,73.70
2022-12-24T23:56:08.844Z,73.73
2022-12-24T23:58:35.393Z,73.49
